Time;durP1;ratioP1;P1;durP2;ratioP2;P2;SDS_P1;SDS_P2;PMS_P1;PMS_P2;Temp;Humidity;BMP_temperature;BMP_pressure;BME280_temperature;BME280_humidity;BME280_pressure;Samples;Min_cycle;Max_cycle;Signal;HPM_P1;HPM_P2
2023/08/08 00:01:17;;;;;;;8.35;3.78;;;16.70;79.60;;;;;;5051243;28;20033;-68
2023/08/08 00:03:42;;;;;;;9.48;3.92;;;16.70;79.60;;;;;;5042307;28;20037;-69
2023/08/08 00:06:08;;;;;;;7.35;3.60;;;16.70;79.60;;;;;;5036981;28;20030;-68
2023/08/08 00:08:34;;;;;;;7.15;3.60;;;16.70;79.60;;;;;;5048137;28;20032;-68
2023/08/08 00:11:00;;;;;;;10.43;4.07;;;16.70;79.60;;;;;;5033629;28;20017;-68
2023/08/08 00:13:25;;;;;;;8.98;3.78;;;16.70;79.60;;;;;;5047802;28;20342;-68
2023/08/08 00:15:51;;;;;;;8.35;4.00;;;16.70;79.60;;;;;;5049009;28;20032;-68
2023/08/08 00:18:17;;;;;;;9.10;3.72;;;16.60;79.70;;;;;;5053142;28;20476;-68
2023/08/08 00:20:43;;;;;;;10.45;3.92;;;16.60;79.70;;;;;;5044174;28;20043;-69
2023/08/08 00:23:08;;;;;;;7.45;3.60;;;16.60;79.80;;;;;;5045837;28;20040;-68
2023/08/08 00:25:35;;;;;;;7.82;3.70;;;16.70;79.80;;;;;;5049381;28;20033;-68
2023/08/08 00:28:01;;;;;;;7.97;3.92;;;16.60;79.70;;;;;;5049163;28;20323;-68
2023/08/08 00:30:27;;;;;;;8.27;4.00;;;16.70;79.70;;;;;;5053368;28;20056;-68
2023/08/08 00:32:53;;;;;;;7.60;3.75;;;16.70;79.70;;;;;;5042449;28;20068;-68
2023/08/08 00:35:18;;;;;;;9.15;3.80;;;16.70;79.70;;;;;;5049166;28;20049;-68
2023/08/08 00:37:45;;;;;;;8.75;4.43;;;16.70;79.80;;;;;;5043974;28;20405;-68
2023/08/08 00:40:11;;;;;;;9.52;4.05;;;16.70;79.80;;;;;;5052335;28;20025;-68
2023/08/08 00:42:36;;;;;;;7.70;4.05;;;16.70;79.90;;;;;;5039751;28;20026;-69
2023/08/08 00:45:03;;;;;;;10.18;4.22;;;16.70;79.90;;;;;;5067406;28;20037;-69
2023/08/08 00:47:33;;;;;;;8.52;4.03;;;16.70;79.80;;;;;;5046750;28;20438;-69
2023/08/08 00:50:02;;;;;;;9.07;4.55;;;16.70;79.90;;;;;;5050447;28;20035;-69
2023/08/08 00:52:29;;;;;;;9.02;4.18;;;16.70;79.80;;;;;;5043634;28;20025;-68
2023/08/08 00:54:55;;;;;;;9.55;4.35;;;16.70;80.00;;;;;;5039491;28;20049;-69
2023/08/08 00:57:21;;;;;;;8.02;4.20;;;16.70;80.00;;;;;;5031884;28;20029;-69
2023/08/08 00:59:47;;;;;;;10.73;4.90;;;16.70;80.00;;;;;;5060294;28;20026;-69
2023/08/08 01:02:14;;;;;;;9.27;4.07;;;16.70;80.00;;;;;;5043910;28;20362;-69
2023/08/08 01:04:41;;;;;;;8.23;4.10;;;16.70;80.10;;;;;;5051709;28;20033;-68
2023/08/08 01:07:22;;;;;;;8.35;3.97;;;16.70;80.10;;;;;;5046639;28;20025;-69
2023/08/08 01:10:08;;;;;;;8.20;4.28;;;16.70;80.10;;;;;;5050219;28;20029;-69
2023/08/08 01:12:51;;;;;;;8.23;3.92;;;16.70;80.20;;;;;;5046482;28;20085;-68
2023/08/08 01:15:18;;;;;;;9.98;4.03;;;16.70;80.00;;;;;;5042918;28;20033;-68
2023/08/08 01:17:45;;;;;;;8.65;3.60;;;16.70;80.10;;;;;;5051237;28;20029;-68
2023/08/08 01:20:16;;;;;;;8.75;4.28;;;16.70;80.10;;;;;;5033329;28;20092;-69
2023/08/08 01:23:01;;;;;;;7.35;3.80;;;16.70;80.10;;;;;;5049745;28;20036;-68
2023/08/08 01:25:26;;;;;;;8.07;3.35;;;16.70;80.00;;;;;;5035038;28;20257;-68
2023/08/08 01:27:52;;;;;;;10.43;4.65;;;16.70;80.20;;;;;;5039354;28;20159;-69
2023/08/08 01:30:18;;;;;;;9.52;4.07;;;16.70;80.30;;;;;;5049181;28;20017;-68
2023/08/08 01:32:44;;;;;;;9.93;3.90;;;16.70;80.40;;;;;;5042704;28;20033;-68
2023/08/08 01:35:09;;;;;;;11.07;4.20;;;16.70;80.50;;;;;;5057787;28;20021;-69
2023/08/08 01:37:44;;;;;;;10.40;4.05;;;16.70;80.70;;;;;;5052116;28;20017;-68
2023/08/08 01:40:12;;;;;;;9.02;4.30;;;16.70;80.80;;;;;;5046757;28;20033;-68
2023/08/08 01:42:39;;;;;;;9.40;4.32;;;16.70;80.90;;;;;;5035288;28;20025;-68
2023/08/08 01:45:08;;;;;;;9.18;3.95;;;16.70;81.00;;;;;;5034495;28;20485;-68
2023/08/08 01:47:35;;;;;;;10.02;3.88;;;16.70;81.00;;;;;;5046203;28;20022;-68
2023/08/08 01:50:02;;;;;;;8.48;3.72;;;16.70;81.10;;;;;;5043010;28;20072;-68
2023/08/08 01:52:28;;;;;;;9.50;3.97;;;16.60;81.10;;;;;;5040150;28;20507;-68
2023/08/08 01:54:54;;;;;;;9.60;3.58;;;16.60;81.20;;;;;;5044389;28;20080;-68
2023/08/08 01:57:22;;;;;;;8.68;3.88;;;16.60;81.20;;;;;;5048011;28;20454;-69
2023/08/08 01:59:48;;;;;;;6.90;3.35;;;16.60;81.30;;;;;;5052388;28;20056;-69
2023/08/08 02:02:15;;;;;;;9.23;3.42;;;16.60;81.30;;;;;;5035382;28;20067;-68
2023/08/08 02:04:40;;;;;;;7.00;3.40;;;16.60;81.40;;;;;;5049129;28;20041;-68
2023/08/08 02:07:06;;;;;;;9.13;4.20;;;16.60;81.30;;;;;;5042585;28;20025;-68
2023/08/08 02:09:32;;;;;;;9.55;4.50;;;16.60;81.30;;;;;;5048617;28;20024;-69
2023/08/08 02:11:57;;;;;;;7.82;3.90;;;16.60;81.30;;;;;;5052148;28;20056;-68
2023/08/08 02:14:23;;;;;;;8.52;3.88;;;16.60;81.30;;;;;;5051376;28;20529;-68
2023/08/08 02:16:49;;;;;;;8.93;3.78;;;16.60;81.30;;;;;;5041705;28;20393;-68
2023/08/08 02:19:15;;;;;;;9.60;3.85;;;16.60;81.30;;;;;;5045611;28;20098;-68
2023/08/08 02:21:40;;;;;;;9.98;4.07;;;16.60;81.30;;;;;;5040219;28;20037;-68
2023/08/08 02:24:06;;;;;;;8.80;3.90;;;16.60;81.40;;;;;;5045214;28;20064;-68
2023/08/08 02:26:32;;;;;;;10.52;4.60;;;16.60;81.40;;;;;;5045711;28;20052;-68
2023/08/08 02:28:58;;;;;;;7.22;3.20;;;16.60;81.40;;;;;;5046275;28;20028;-68
2023/08/08 02:31:23;;;;;;;8.38;3.55;;;16.60;81.50;;;;;;5057953;28;20018;-68
2023/08/08 02:33:50;;;;;;;8.63;3.40;;;16.60;81.50;;;;;;5040108;28;20029;-68
2023/08/08 02:36:17;;;;;;;7.07;3.15;;;16.60;81.60;;;;;;5038637;28;20021;-68
2023/08/08 02:38:44;;;;;;;8.73;3.38;;;16.60;81.60;;;;;;5056883;28;20103;-68
2023/08/08 02:41:09;;;;;;;10.23;3.80;;;16.60;81.70;;;;;;5044484;28;20124;-68
2023/08/08 02:43:35;;;;;;;8.77;3.33;;;16.50;81.60;;;;;;5050406;28;20087;-68
2023/08/08 02:46:01;;;;;;;7.85;3.30;;;16.60;81.70;;;;;;5040705;28;20029;-68
2023/08/08 02:48:28;;;;;;;7.40;3.40;;;16.50;81.70;;;;;;5047375;28;20021;-68
2023/08/08 02:50:54;;;;;;;7.63;3.30;;;16.50;81.70;;;;;;5047459;28;20024;-68
2023/08/08 02:53:23;;;;;;;7.43;2.95;;;16.50;81.70;;;;;;5060238;28;20102;-68
2023/08/08 02:55:49;;;;;;;7.35;3.10;;;16.50;81.70;;;;;;5036489;28;20450;-69
2023/08/08 02:58:15;;;;;;;8.93;3.47;;;16.50;81.80;;;;;;5063737;28;20029;-68
2023/08/08 03:00:41;;;;;;;6.30;2.72;;;16.40;81.70;;;;;;5047659;28;20112;-68
2023/08/08 03:03:10;;;;;;;7.57;3.10;;;16.40;81.70;;;;;;5041750;28;20029;-68
2023/08/08 03:05:36;;;;;;;9.05;3.33;;;16.40;81.70;;;;;;5047722;28;20029;-68
2023/08/08 03:08:03;;;;;;;7.15;3.40;;;16.40;81.70;;;;;;5062389;28;20401;-69
2023/08/08 03:10:28;;;;;;;7.70;3.30;;;16.30;81.70;;;;;;5024832;28;20028;-68
2023/08/08 03:12:54;;;;;;;8.73;3.20;;;16.30;81.70;;;;;;5038563;28;20025;-68
2023/08/08 03:15:21;;;;;;;7.90;3.10;;;16.30;81.70;;;;;;5062554;28;20017;-68
2023/08/08 03:17:48;;;;;;;10.05;3.60;;;16.30;81.70;;;;;;5049498;28;20118;-68
2023/08/08 03:20:14;;;;;;;8.75;3.40;;;16.30;81.70;;;;;;5042450;28;20104;-69
2023/08/08 03:22:41;;;;;;;8.18;3.35;;;16.30;81.70;;;;;;5038201;28;20021;-68
2023/08/08 03:25:08;;;;;;;7.97;3.42;;;16.40;82.60;;;;;;5041844;28;20029;-68
2023/08/08 03:27:33;;;;;;;9.13;3.70;;;16.30;81.90;;;;;;5042476;28;20039;-68
2023/08/08 03:29:59;;;;;;;8.43;3.38;;;16.30;81.90;;;;;;5027224;28;20108;-68
2023/08/08 03:32:27;;;;;;;10.05;4.03;;;16.40;82.00;;;;;;5034635;28;20025;-68
2023/08/08 03:34:53;;;;;;;7.65;3.90;;;16.40;82.10;;;;;;5042037;28;20184;-68
2023/08/08 03:37:19;;;;;;;10.18;4.53;;;16.40;82.10;;;;;;5058596;28;20068;-69
2023/08/08 03:39:47;;;;;;;10.43;3.75;;;16.40;82.10;;;;;;5038281;28;20022;-68
2023/08/08 03:42:13;;;;;;;9.15;4.07;;;16.50;82.20;;;;;;5064147;28;20034;-68
2023/08/08 03:44:39;;;;;;;10.43;4.72;;;16.50;82.20;;;;;;5041957;28;20493;-68
2023/08/08 03:47:05;;;;;;;10.10;3.92;;;16.50;82.20;;;;;;5025103;28;20083;-68
2023/08/08 03:49:31;;;;;;;11.80;4.22;;;16.50;82.30;;;;;;5025932;28;20032;-69
2023/08/08 03:51:59;;;;;;;7.90;3.80;;;16.50;82.30;;;;;;5040296;28;20450;-68
2023/08/08 03:54:26;;;;;;;11.18;4.43;;;16.50;82.40;;;;;;5024965;28;20020;-68
2023/08/08 03:56:51;;;;;;;11.82;4.30;;;16.50;82.50;;;;;;5043989;28;20017;-68
2023/08/08 03:59:19;;;;;;;11.00;4.45;;;16.50;82.50;;;;;;5048253;28;20093;-68
2023/08/08 04:01:45;;;;;;;11.18;4.75;;;16.40;82.50;;;;;;5035209;28;20036;-68
2023/08/08 04:04:11;;;;;;;13.10;4.57;;;16.50;82.60;;;;;;5035013;28;20203;-68
2023/08/08 04:06:37;;;;;;;9.75;4.70;;;16.50;82.60;;;;;;5062886;28;20032;-68
2023/08/08 04:09:03;;;;;;;10.15;4.63;;;16.50;82.70;;;;;;5043988;28;20440;-68
2023/08/08 04:11:29;;;;;;;10.63;5.15;;;16.50;82.80;;;;;;5048249;28;20437;-69
2023/08/08 04:13:55;;;;;;;11.05;4.53;;;16.50;82.80;;;;;;5045715;28;20018;-69
2023/08/08 04:16:21;;;;;;;11.57;5.00;;;16.50;82.80;;;;;;5060859;28;20361;-68
2023/08/08 04:18:46;;;;;;;11.10;4.72;;;16.40;82.80;;;;;;5037590;28;20039;-68
2023/08/08 04:21:12;;;;;;;9.38;4.05;;;16.40;82.80;;;;;;5036639;28;20041;-68
2023/08/08 04:23:38;;;;;;;9.13;4.70;;;16.50;83.20;;;;;;5037710;28;20489;-68
2023/08/08 04:26:04;;;;;;;12.27;4.07;;;16.50;82.80;;;;;;5049307;28;20106;-68
2023/08/08 04:28:29;;;;;;;9.02;4.07;;;16.50;82.80;;;;;;5035525;28;20025;-68
2023/08/08 04:30:55;;;;;;;8.95;3.80;;;16.50;82.90;;;;;;5039351;28;20040;-68
2023/08/08 04:33:21;;;;;;;9.05;4.40;;;16.40;82.90;;;;;;5036477;28;20026;-68
2023/08/08 04:35:47;;;;;;;9.20;4.20;;;16.40;82.90;;;;;;5056629;28;20033;-68
2023/08/08 04:38:15;;;;;;;9.73;4.65;;;16.50;82.90;;;;;;5041824;28;20026;-69
2023/08/08 04:40:41;;;;;;;9.02;4.95;;;16.40;82.90;;;;;;5042132;28;20022;-68
2023/08/08 04:43:07;;;;;;;9.00;4.50;;;16.40;82.90;;;;;;5042928;28;20082;-68
2023/08/08 04:45:33;;;;;;;12.68;4.82;;;16.50;83.00;;;;;;5035824;28;20050;-68
2023/08/08 04:47:59;;;;;;;11.93;4.55;;;16.50;82.90;;;;;;5045659;28;20108;-68
2023/08/08 04:50:24;;;;;;;9.10;4.90;;;16.50;82.90;;;;;;5043392;28;20116;-68
2023/08/08 04:52:50;;;;;;;9.50;4.78;;;16.50;82.90;;;;;;5043340;28;20021;-68
2023/08/08 04:55:16;;;;;;;11.02;5.38;;;16.50;82.90;;;;;;5041576;28;20461;-66
2023/08/08 04:57:42;;;;;;;8.60;4.60;;;16.50;82.90;;;;;;5042844;28;20124;-68
2023/08/08 05:00:09;;;;;;;10.50;4.40;;;16.50;82.90;;;;;;5045565;28;20021;-69
2023/08/08 05:02:35;;;;;;;10.30;4.50;;;16.50;82.90;;;;;;5034107;28;20091;-67
2023/08/08 05:05:01;;;;;;;11.38;4.90;;;16.50;82.90;;;;;;5048220;28;20068;-68
2023/08/08 05:07:28;;;;;;;10.00;4.65;;;16.50;82.90;;;;;;5042955;28;20064;-68
2023/08/08 05:09:53;;;;;;;11.82;5.07;;;16.50;82.90;;;;;;5066892;28;20025;-68
2023/08/08 05:12:19;;;;;;;11.35;5.28;;;16.50;82.90;;;;;;5044150;28;20070;-68
2023/08/08 05:14:45;;;;;;;12.27;4.72;;;16.50;83.00;;;;;;5055575;28;20373;-68
2023/08/08 05:17:10;;;;;;;13.18;5.28;;;16.50;82.90;;;;;;5056266;28;20037;-68
2023/08/08 05:19:36;;;;;;;9.95;4.63;;;16.50;82.90;;;;;;5037352;28;20039;-68
2023/08/08 05:22:02;;;;;;;9.60;4.75;;;16.60;83.00;;;;;;5053025;28;20041;-68
2023/08/08 05:24:28;;;;;;;12.77;5.55;;;16.60;82.90;;;;;;5055235;28;20454;-68
2023/08/08 05:26:53;;;;;;;13.27;5.45;;;16.60;82.90;;;;;;5055853;28;20033;-68
2023/08/08 05:29:19;;;;;;;10.02;5.38;;;16.60;83.00;;;;;;5054060;28;20029;-68
2023/08/08 05:31:47;;;;;;;12.07;5.53;;;16.70;83.00;;;;;;5054248;28;20086;-68
2023/08/08 05:34:12;;;;;;;12.23;5.63;;;16.70;82.90;;;;;;5051104;28;20025;-68
2023/08/08 05:36:38;;;;;;;12.55;5.45;;;16.70;82.90;;;;;;5050130;28;20033;-68
2023/08/08 05:39:04;;;;;;;12.77;5.50;;;16.80;83.00;;;;;;5050644;28;20575;-68
2023/08/08 05:41:29;;;;;;;10.43;5.25;;;16.80;83.00;;;;;;5027886;28;20021;-68
2023/08/08 05:43:55;;;;;;;10.88;5.90;;;16.80;83.00;;;;;;5049588;28;20369;-68
2023/08/08 05:46:21;;;;;;;11.93;5.97;;;16.80;83.00;;;;;;5050614;28;20024;-68
2023/08/08 05:48:47;;;;;;;13.40;5.32;;;16.90;83.00;;;;;;5052290;28;20032;-68
2023/08/08 05:51:12;;;;;;;11.18;5.50;;;16.90;83.00;;;;;;5047810;28;20039;-69
2023/08/08 05:53:38;;;;;;;12.30;4.95;;;16.90;83.00;;;;;;5050840;28;20170;-68
2023/08/08 05:56:04;;;;;;;10.00;4.95;;;17.00;82.90;;;;;;5049581;28;20025;-68
2023/08/08 05:58:30;;;;;;;11.77;5.57;;;17.00;82.80;;;;;;5051695;28;20028;-68
2023/08/08 06:00:56;;;;;;;15.43;5.93;;;17.10;82.70;;;;;;5047502;28;20040;-68
2023/08/08 06:03:21;;;;;;;10.70;5.47;;;17.10;82.70;;;;;;5050292;28;20037;-68
2023/08/08 06:05:48;;;;;;;14.40;5.40;;;17.20;82.60;;;;;;5051163;28;20036;-68
2023/08/08 06:08:16;;;;;;;14.95;5.40;;;17.20;82.60;;;;;;5050280;28;20442;-68
2023/08/08 06:10:42;;;;;;;11.30;5.07;;;17.20;82.60;;;;;;5046849;28;20093;-68
2023/08/08 06:13:08;;;;;;;11.25;5.80;;;17.20;82.60;;;;;;5042085;28;20044;-68
2023/08/08 06:15:34;;;;;;;12.68;5.68;;;17.20;82.50;;;;;;5053075;28;20516;-64
2023/08/08 06:18:00;;;;;;;11.18;4.65;;;17.20;82.50;;;;;;5045991;28;20033;-64
2023/08/08 06:20:25;;;;;;;12.32;5.63;;;17.30;82.50;;;;;;5053244;28;20024;-63
2023/08/08 06:22:52;;;;;;;11.90;5.05;;;17.30;82.40;;;;;;5049443;28;20358;-69
2023/08/08 06:25:17;;;;;;;10.80;4.85;;;17.30;82.30;;;;;;5037723;28;20098;-68
2023/08/08 06:27:43;;;;;;;12.50;5.05;;;17.40;82.20;;;;;;5032718;28;20449;-69
2023/08/08 06:30:09;;;;;;;9.98;4.60;;;17.60;82.10;;;;;;5049517;28;20051;-67
2023/08/08 06:32:35;;;;;;;13.10;4.57;;;17.70;81.90;;;;;;5051599;28;20079;-66
2023/08/08 06:35:01;;;;;;;12.60;4.60;;;17.70;81.70;;;;;;5043175;28;20033;-68
2023/08/08 06:37:26;;;;;;;11.77;4.97;;;17.70;81.60;;;;;;5050444;28;20064;-67
2023/08/08 06:39:52;;;;;;;10.85;4.70;;;17.80;81.50;;;;;;5043516;28;20111;-67
2023/08/08 06:42:18;;;;;;;12.60;4.60;;;17.70;81.40;;;;;;5029879;28;20036;-68
2023/08/08 06:44:53;;;;;;;15.18;4.45;;;17.70;81.60;;;;;;5044210;28;20079;-67
2023/08/08 06:47:19;;;;;;;13.88;4.78;;;17.80;81.60;;;;;;5041845;28;20413;-68
2023/08/08 06:49:44;;;;;;;12.68;4.90;;;17.90;81.40;;;;;;5047381;28;20376;-67
2023/08/08 06:52:10;;;;;;;11.63;4.03;;;18.10;81.00;;;;;;5029425;28;20434;-67
2023/08/08 06:54:36;;;;;;;9.07;3.78;;;18.20;80.70;;;;;;5046277;28;20027;-67
2023/08/08 06:57:02;;;;;;;10.10;4.32;;;18.30;80.30;;;;;;5046536;28;20021;-67
2023/08/08 06:59:28;;;;;;;13.77;4.40;;;18.40;80.10;;;;;;5049929;28;20025;-67
2023/08/08 07:01:53;;;;;;;9.45;4.63;;;18.50;79.80;;;;;;5047199;28;20076;-67
2023/08/08 07:04:19;;;;;;;10.60;3.60;;;18.60;79.60;;;;;;5045825;28;20037;-68
2023/08/08 07:06:45;;;;;;;11.15;3.95;;;18.70;79.40;;;;;;5024133;28;20160;-67
2023/08/08 07:09:11;;;;;;;12.77;3.65;;;18.70;79.20;;;;;;5045716;28;20029;-67
2023/08/08 07:11:37;;;;;;;7.85;2.95;;;18.80;79.10;;;;;;5051800;28;20036;-67
2023/08/08 07:14:03;;;;;;;8.90;2.95;;;19.00;78.60;;;;;;5049595;28;20036;-68
2023/08/08 07:16:29;;;;;;;7.82;3.47;;;19.20;78.10;;;;;;5044536;28;20042;-68
2023/08/08 07:18:54;;;;;;;8.10;3.17;;;19.30;77.70;;;;;;5050684;28;20063;-68
2023/08/08 07:21:20;;;;;;;8.15;2.80;;;19.30;77.40;;;;;;5046591;28;20045;-68
2023/08/08 07:23:46;;;;;;;7.72;2.55;;;19.30;77.30;;;;;;5043304;28;20021;-68
2023/08/08 07:26:12;;;;;;;7.30;2.72;;;19.30;77.30;;;;;;5048550;28;20150;-67
2023/08/08 07:28:38;;;;;;;5.03;1.98;;;19.40;76.90;;;;;;5046870;28;20081;-68
2023/08/08 07:31:04;;;;;;;5.57;1.67;;;19.60;76.30;;;;;;5050017;28;20037;-68
2023/08/08 07:33:30;;;;;;;7.78;2.00;;;19.80;75.70;;;;;;5049335;28;20134;-68
2023/08/08 07:35:55;;;;;;;4.97;1.73;;;20.00;74.80;;;;;;5048787;28;21713;-68
2023/08/08 07:38:21;;;;;;;4.95;1.50;;;20.20;73.90;;;;;;5050550;28;20110;-68
2023/08/08 07:40:48;;;;;;;4.25;1.63;;;20.30;73.20;;;;;;5033948;28;20029;-67
2023/08/08 07:43:13;;;;;;;3.60;1.45;;;20.50;72.50;;;;;;5046031;28;20037;-68
2023/08/08 07:45:39;;;;;;;5.40;1.50;;;20.50;71.60;;;;;;5049657;28;20041;-68
2023/08/08 07:48:05;;;;;;;4.57;1.48;;;20.30;71.20;;;;;;5048510;28;20044;-67
2023/08/08 07:50:31;;;;;;;7.72;2.00;;;20.10;71.30;;;;;;5043182;28;20036;-68
2023/08/08 07:52:57;;;;;;;4.28;1.42;;;19.80;71.70;;;;;;5047588;28;20025;-67
2023/08/08 07:55:23;;;;;;;4.55;1.30;;;19.70;71.80;;;;;;5042411;28;20462;-67
2023/08/08 07:57:48;;;;;;;2.83;1.10;;;19.60;71.80;;;;;;5043363;28;20107;-68
2023/08/08 08:00:18;;;;;;;4.18;1.45;;;19.60;71.40;;;;;;5045934;28;20025;-68
2023/08/08 08:02:45;;;;;;;3.85;1.20;;;19.60;71.20;;;;;;5042253;28;20738;-68
2023/08/08 08:05:11;;;;;;;3.67;1.25;;;19.80;70.70;;;;;;5047870;28;20511;-68
2023/08/08 08:07:38;;;;;;;5.20;1.60;;;20.00;69.90;;;;;;5046674;28;20040;-68
2023/08/08 08:10:06;;;;;;;4.05;1.30;;;20.10;69.40;;;;;;5049233;28;20056;-68
2023/08/08 08:12:32;;;;;;;2.88;1.20;;;20.20;68.90;;;;;;5051496;28;20028;-66
2023/08/08 08:14:58;;;;;;;2.40;1.00;;;20.30;68.20;;;;;;5047223;28;20031;-68
2023/08/08 08:17:24;;;;;;;6.65;1.50;;;20.40;67.80;;;;;;5048374;28;20090;-68
2023/08/08 08:19:51;;;;;;;4.20;1.10;;;20.70;67.40;;;;;;5047359;28;20028;-69
2023/08/08 08:22:17;;;;;;;2.28;1.15;;;20.70;66.90;;;;;;5034459;28;20048;-68
2023/08/08 08:24:43;;;;;;;1.63;1.00;;;20.60;67.10;;;;;;5043506;28;20064;-68
2023/08/08 08:27:09;;;;;;;5.57;1.05;;;20.60;66.90;;;;;;5046313;28;20048;-66
2023/08/08 08:29:35;;;;;;;3.15;1.15;;;20.70;66.40;;;;;;5051125;28;20433;-68
2023/08/08 08:32:00;;;;;;;3.22;1.02;;;20.80;65.90;;;;;;5050038;28;20032;-68
2023/08/08 08:34:26;;;;;;;4.38;1.33;;;21.00;65.30;;;;;;5043497;28;20029;-69
2023/08/08 08:36:52;;;;;;;4.80;1.35;;;21.00;65.00;;;;;;5042878;28;20043;-67
2023/08/08 08:39:17;;;;;;;4.93;1.33;;;21.10;64.70;;;;;;5046779;28;20457;-67
2023/08/08 08:41:48;;;;;;;4.07;1.02;;;21.10;64.40;;;;;;5037038;28;20032;-68
2023/08/08 08:44:15;;;;;;;2.70;1.02;;;21.20;64.10;;;;;;5041898;28;20032;-67
2023/08/08 08:46:42;;;;;;;3.10;1.20;;;21.20;64.00;;;;;;5043788;28;20080;-65
2023/08/08 08:49:10;;;;;;;4.75;1.30;;;21.10;64.00;;;;;;5047544;28;20038;-66
2023/08/08 08:51:39;;;;;;;3.00;0.98;;;20.90;63.90;;;;;;5044332;28;20083;-68
2023/08/08 08:54:05;;;;;;;2.00;0.88;;;20.80;64.00;;;;;;5052109;28;20119;-66
2023/08/08 08:56:32;;;;;;;3.83;0.80;;;21.00;63.80;;;;;;5037995;28;20032;-66
2023/08/08 08:59:00;;;;;;;2.10;1.00;;;21.00;63.70;;;;;;5037697;28;20083;-64
2023/08/08 09:01:27;;;;;;;4.18;1.10;;;21.00;63.60;;;;;;5040500;28;20025;-66
2023/08/08 09:03:53;;;;;;;3.72;1.17;;;21.00;63.30;;;;;;5030667;28;20029;-68
2023/08/08 09:06:20;;;;;;;2.42;1.02;;;20.90;63.20;;;;;;5047254;28;20044;-67
2023/08/08 09:08:47;;;;;;;2.10;0.80;;;21.00;63.60;;;;;;5049078;28;20020;-67
2023/08/08 09:11:13;;;;;;;4.90;1.30;;;21.00;62.70;;;;;;5056035;28;20024;-67
2023/08/08 09:13:39;;;;;;;3.20;1.02;;;20.90;62.70;;;;;;5036816;28;20412;-68
2023/08/08 09:16:09;;;;;;;4.80;0.98;;;20.90;62.50;;;;;;5071176;28;20044;-67
2023/08/08 09:18:38;;;;;;;3.03;0.88;;;20.80;62.10;;;;;;5055362;28;20063;-67
2023/08/08 09:21:05;;;;;;;2.72;1.00;;;20.80;61.90;;;;;;5054002;28;20120;-67
2023/08/08 09:23:31;;;;;;;2.47;1.15;;;20.80;61.80;;;;;;5056247;28;20094;-67
2023/08/08 09:25:56;;;;;;;1.77;0.90;;;21.00;61.30;;;;;;5054561;28;20449;-68
2023/08/08 09:28:22;;;;;;;3.75;1.10;;;20.80;61.10;;;;;;5056389;28;20083;-67
2023/08/08 09:30:49;;;;;;;1.67;0.80;;;20.70;61.20;;;;;;5046010;28;20036;-67
2023/08/08 09:33:14;;;;;;;5.47;1.40;;;20.60;61.10;;;;;;5054227;28;20037;-67
2023/08/08 09:35:40;;;;;;;3.83;1.30;;;20.60;61.10;;;;;;5050783;28;20049;-67
2023/08/08 09:38:07;;;;;;;2.17;1.02;;;20.80;60.90;;;;;;5051550;28;20059;-67
2023/08/08 09:40:33;;;;;;;2.40;1.02;;;20.80;60.40;;;;;;5043403;28;20342;-67
2023/08/08 09:42:59;;;;;;;3.15;0.77;;;20.70;60.10;;;;;;5050319;28;20747;-67
2023/08/08 09:45:25;;;;;;;2.42;0.70;;;20.70;60.20;;;;;;5042070;28;20063;-67
2023/08/08 09:47:53;;;;;;;2.42;0.95;;;20.60;60.30;;;;;;5043303;28;20047;-67
2023/08/08 09:50:19;;;;;;;4.43;1.40;;;20.50;60.30;;;;;;5043528;28;20030;-67
2023/08/08 09:52:49;;;;;;;1.67;0.88;;;20.60;60.40;;;;;;5044503;28;20094;-67
2023/08/08 09:55:15;;;;;;;3.35;1.00;;;20.60;59.90;;;;;;5038054;28;20021;-67
2023/08/08 09:57:41;;;;;;;3.35;1.10;;;20.60;60.00;;;;;;5026603;28;20086;-67
2023/08/08 10:00:15;;;;;;;3.45;1.10;;;20.70;59.70;;;;;;5045356;28;20068;-68
2023/08/08 10:02:44;;;;;;;2.40;0.95;;;20.70;59.50;;;;;;5049872;28;20469;-67
2023/08/08 10:05:12;;;;;;;1.60;0.90;;;20.80;59.10;;;;;;5048519;28;20033;-67
2023/08/08 10:07:40;;;;;;;1.92;0.90;;;20.80;58.90;;;;;;5047104;28;20040;-67
2023/08/08 10:10:08;;;;;;;3.17;0.85;;;21.00;58.70;;;;;;5049593;28;20033;-67
2023/08/08 10:12:34;;;;;;;3.35;0.90;;;21.00;58.50;;;;;;5050289;28;20112;-67
2023/08/08 10:15:00;;;;;;;2.10;0.90;;;21.10;58.40;;;;;;5030836;28;20111;-68
2023/08/08 10:17:26;;;;;;;1.73;0.75;;;21.20;58.20;;;;;;5045700;28;20037;-67
2023/08/08 10:19:55;;;;;;;1.80;0.75;;;21.20;57.90;;;;;;5048857;28;20037;-67
2023/08/08 10:22:23;;;;;;;3.70;1.10;;;21.10;58.00;;;;;;5032190;28;20131;-67
2023/08/08 10:24:53;;;;;;;2.40;0.85;;;21.10;58.20;;;;;;5041982;28;20058;-67
2023/08/08 10:27:35;;;;;;;2.78;1.10;;;20.90;58.10;;;;;;5049336;28;20207;-67
2023/08/08 10:30:10;;;;;;;2.40;0.90;;;20.80;58.30;;;;;;5044001;28;20110;-67
2023/08/08 10:32:50;;;;;;;2.67;0.90;;;20.80;58.30;;;;;;5048046;28;20021;-67
2023/08/08 10:35:16;;;;;;;2.83;1.40;;;21.00;57.90;;;;;;5042060;28;20397;-67
2023/08/08 10:37:53;;;;;;;2.30;0.73;;;21.20;57.70;;;;;;5050941;28;20112;-67
2023/08/08 10:40:19;;;;;;;2.85;1.00;;;21.40;56.80;;;;;;5047563;28;20032;-66
2023/08/08 10:42:46;;;;;;;2.92;0.90;;;21.40;57.10;;;;;;5041881;28;20044;-67
2023/08/08 10:45:14;;;;;;;4.18;1.00;;;21.40;57.00;;;;;;5046177;28;20447;-66
2023/08/08 10:47:41;;;;;;;2.25;1.05;;;21.50;56.90;;;;;;5040487;28;20060;-67
2023/08/08 10:50:12;;;;;;;2.20;0.80;;;21.80;56.60;;;;;;5043464;28;20033;-67
2023/08/08 10:52:54;;;;;;;1.90;0.77;;;22.20;56.10;;;;;;5047747;28;20111;-67
2023/08/08 10:55:27;;;;;;;1.88;0.77;;;22.30;55.80;;;;;;5048354;28;20037;-67
2023/08/08 10:58:12;;;;;;;2.47;0.88;;;22.10;56.10;;;;;;5047359;28;20090;-68
2023/08/08 11:00:39;;;;;;;2.72;1.13;;;22.10;55.70;;;;;;5036873;28;20045;-68
2023/08/08 11:03:06;;;;;;;2.08;0.80;;;22.30;55.40;;;;;;5041230;28;20039;-68
2023/08/08 11:05:33;;;;;;;2.80;0.93;;;22.40;55.10;;;;;;5039460;28;20425;-68
2023/08/08 11:08:00;;;;;;;2.63;1.08;;;22.40;55.20;;;;;;5043143;28;20036;-68
2023/08/08 11:10:31;;;;;;;4.78;1.10;;;22.40;55.30;;;;;;5037284;28;20385;-68
2023/08/08 11:12:59;;;;;;;2.05;1.08;;;22.30;55.30;;;;;;5040695;28;20444;-68
2023/08/08 11:15:26;;;;;;;2.40;0.98;;;22.10;55.50;;;;;;5047476;28;20480;-69
2023/08/08 11:17:56;;;;;;;1.85;0.90;;;22.00;55.80;;;;;;5041745;28;20029;-68
2023/08/08 11:20:23;;;;;;;2.58;0.98;;;22.10;55.70;;;;;;5045394;28;20139;-68
2023/08/08 11:22:56;;;;;;;3.95;0.95;;;22.10;55.20;;;;;;5050727;28;20116;-68
2023/08/08 11:25:24;;;;;;;1.65;1.00;;;22.00;54.80;;;;;;5052769;28;20093;-69
2023/08/08 11:27:54;;;;;;;2.35;0.90;;;21.90;55.10;;;;;;5047231;28;20475;-68
2023/08/08 11:30:22;;;;;;;1.13;0.75;;;21.80;55.20;;;;;;5045205;28;20030;-68
2023/08/08 11:32:49;;;;;;;2.17;1.00;;;21.60;56.20;;;;;;5039379;28;20404;-68
2023/08/08 11:35:21;;;;;;;3.95;1.20;;;21.50;55.80;;;;;;5054033;28;20540;-68
2023/08/08 11:37:48;;;;;;;3.88;1.17;;;21.40;55.60;;;;;;5047006;28;20365;-68
2023/08/08 11:40:15;;;;;;;3.00;1.20;;;21.30;55.60;;;;;;5051078;28;20025;-67
2023/08/08 11:42:42;;;;;;;2.53;1.08;;;21.30;55.50;;;;;;5048517;28;20051;-66
2023/08/08 11:45:12;;;;;;;3.83;1.25;;;21.20;55.60;;;;;;5045063;28;20032;-68
2023/08/08 11:47:39;;;;;;;3.80;1.23;;;21.10;55.60;;;;;;5062795;28;21188;-68
2023/08/08 11:50:07;;;;;;;1.35;0.88;;;21.00;55.90;;;;;;5046053;28;20029;-71
2023/08/08 11:52:35;;;;;;;1.98;1.05;;;21.00;56.00;;;;;;5051872;28;20029;-71
2023/08/08 11:55:01;;;;;;;4.45;1.50;;;21.20;56.00;;;;;;5057502;28;20036;-69
2023/08/08 11:57:27;;;;;;;3.97;1.10;;;21.40;55.80;;;;;;5047915;28;20112;-69
2023/08/08 11:59:54;;;;;;;3.53;1.08;;;21.60;55.60;;;;;;5055694;28;20509;-69
2023/08/08 12:02:20;;;;;;;2.30;1.17;;;21.70;55.20;;;;;;5040550;28;20091;-68
2023/08/08 12:04:46;;;;;;;2.92;1.20;;;21.70;55.10;;;;;;5050212;28;20116;-68
2023/08/08 12:07:12;;;;;;;2.45;1.23;;;21.70;54.90;;;;;;5057005;28;20047;-66
2023/08/08 12:09:39;;;;;;;2.25;1.08;;;21.80;54.90;;;;;;5048353;28;20026;-68
2023/08/08 12:12:05;;;;;;;3.33;1.33;;;21.70;55.00;;;;;;5053861;28;20021;-68
2023/08/08 12:14:39;;;;;;;1.88;1.10;;;21.70;55.00;;;;;;5047864;28;20033;-69
2023/08/08 12:17:05;;;;;;;4.95;1.40;;;21.80;54.70;;;;;;5032414;28;20029;-71
2023/08/08 12:19:31;;;;;;;2.38;1.20;;;21.80;54.70;;;;;;5045157;28;20040;-71
2023/08/08 12:21:57;;;;;;;4.97;1.15;;;21.70;54.60;;;;;;5041671;28;20045;-70
2023/08/08 12:24:23;;;;;;;3.28;1.30;;;21.70;55.00;;;;;;5046287;28;20326;-67
2023/08/08 12:26:49;;;;;;;2.65;1.17;;;21.80;55.20;;;;;;5037174;28;20029;-64
2023/08/08 12:29:14;;;;;;;3.90;1.35;;;22.00;55.30;;;;;;5043708;28;20043;-69
2023/08/08 12:31:41;;;;;;;4.30;1.33;;;22.10;55.00;;;;;;5053464;28;20036;-67
2023/08/08 12:34:07;;;;;;;2.10;1.10;;;22.20;54.70;;;;;;5053791;28;20408;-67
2023/08/08 12:36:33;;;;;;;2.92;1.20;;;22.10;54.60;;;;;;5033653;28;20033;-68
2023/08/08 12:38:58;;;;;;;3.97;1.08;;;22.10;54.80;;;;;;5053457;28;20040;-65
2023/08/08 12:41:24;;;;;;;2.50;1.27;;;22.10;54.70;;;;;;5044275;28;20029;-66